sensor_id;sensor_type;location;lat;lon;timestamp;temperature;humidity
13326;DHT22;6732;51.044;3.746;2022-12-18T00:03:47;-0.60;99.90
13326;DHT22;6732;51.044;3.746;2022-12-18T00:06:15;-0.60;99.90
13326;DHT22;6732;51.044;3.746;2022-12-18T00:08:42;-0.60;99.90
13326;DHT22;6732;51.044;3.746;2022-12-18T00:11:13;-0.60;99.90
13326;DHT22;6732;51.044;3.746;2022-12-18T00:13:40;-0.60;99.90
13326;DHT22;6732;51.044;3.746;2022-12-18T00:16:08;-0.60;99.90
13326;DHT22;6732;51.044;3.746;2022-12-18T00:18:34;-0.60;99.90
13326;DHT22;6732;51.044;3.746;2022-12-18T00:21:02;-0.60;99.90
13326;DHT22;6732;51.044;3.746;2022-12-18T00:23:29;-0.60;99.90
13326;DHT22;6732;51.044;3.746;2022-12-18T00:26:02;-0.60;99.90
13326;DHT22;6732;51.044;3.746;2022-12-18T00:28:29;-0.60;99.90
13326;DHT22;6732;51.044;3.746;2022-12-18T00:31:05;-0.60;99.90
13326;DHT22;6732;51.044;3.746;2022-12-18T00:33:31;-0.70;99.90
13326;DHT22;6732;51.044;3.746;2022-12-18T00:36:02;-0.70;99.90
13326;DHT22;6732;51.044;3.746;2022-12-18T00:38:29;-0.70;99.90
13326;DHT22;6732;51.044;3.746;2022-12-18T00:40:54;-0.70;99.90
13326;DHT22;6732;51.044;3.746;2022-12-18T00:43:20;-0.70;99.90
13326;DHT22;6732;51.044;3.746;2022-12-18T00:45:46;-0.70;99.90
13326;DHT22;6732;51.044;3.746;2022-12-18T00:48:12;-0.70;99.90
13326;DHT22;6732;51.044;3.746;2022-12-18T00:50:38;-0.70;99.90
13326;DHT22;6732;51.044;3.746;2022-12-18T00:53:04;-0.70;99.90
13326;DHT22;6732;51.044;3.746;2022-12-18T00:55:30;-0.70;99.90
13326;DHT22;6732;51.044;3.746;2022-12-18T00:57:56;-0.70;99.90
13326;DHT22;6732;51.044;3.746;2022-12-18T01:00:22;-0.70;99.90
13326;DHT22;6732;51.044;3.746;2022-12-18T01:02:48;-0.80;99.90
13326;DHT22;6732;51.044;3.746;2022-12-18T01:05:14;-0.80;99.90
13326;DHT22;6732;51.044;3.746;2022-12-18T01:07:40;-0.80;99.90
13326;DHT22;6732;51.044;3.746;2022-12-18T01:10:08;-0.80;99.90
13326;DHT22;6732;51.044;3.746;2022-12-18T01:12:34;-0.80;99.90
13326;DHT22;6732;51.044;3.746;2022-12-18T01:15:01;-0.80;99.90
13326;DHT22;6732;51.044;3.746;2022-12-18T01:17:27;-0.80;99.90
13326;DHT22;6732;51.044;3.746;2022-12-18T01:19:53;-0.80;99.90
13326;DHT22;6732;51.044;3.746;2022-12-18T01:22:19;-0.80;99.90
13326;DHT22;6732;51.044;3.746;2022-12-18T01:24:44;-0.80;99.90
13326;DHT22;6732;51.044;3.746;2022-12-18T01:27:10;-0.90;99.90
13326;DHT22;6732;51.044;3.746;2022-12-18T01:29:36;-0.90;99.90
13326;DHT22;6732;51.044;3.746;2022-12-18T01:32:02;-0.90;99.90
13326;DHT22;6732;51.044;3.746;2022-12-18T01:34:28;-0.90;99.90
13326;DHT22;6732;51.044;3.746;2022-12-18T01:36:54;-0.90;99.90
13326;DHT22;6732;51.044;3.746;2022-12-18T01:39:20;-0.90;99.90
13326;DHT22;6732;51.044;3.746;2022-12-18T01:41:46;-0.90;99.90
13326;DHT22;6732;51.044;3.746;2022-12-18T01:47:49;-1.00;99.90
13326;DHT22;6732;51.044;3.746;2022-12-18T01:50:29;-1.00;99.90
13326;DHT22;6732;51.044;3.746;2022-12-18T01:52:59;-1.00;99.90
13326;DHT22;6732;51.044;3.746;2022-12-18T01:55:29;-1.00;99.90
13326;DHT22;6732;51.044;3.746;2022-12-18T01:57:57;-1.00;99.90
13326;DHT22;6732;51.044;3.746;2022-12-18T02:00:25;-1.00;99.90
13326;DHT22;6732;51.044;3.746;2022-12-18T02:02:52;-1.10;99.90
13326;DHT22;6732;51.044;3.746;2022-12-18T02:18:42;-1.10;99.90
13326;DHT22;6732;51.044;3.746;2022-12-18T02:21:34;-1.10;99.90
13326;DHT22;6732;51.044;3.746;2022-12-18T02:24:49;-1.10;99.90
13326;DHT22;6732;51.044;3.746;2022-12-18T02:26:58;-1.10;99.90
13326;DHT22;6732;51.044;3.746;2022-12-18T02:29:36;-1.20;99.90
13326;DHT22;6732;51.044;3.746;2022-12-18T02:32:07;-1.20;99.90
13326;DHT22;6732;51.044;3.746;2022-12-18T02:34:38;-1.20;99.90
13326;DHT22;6732;51.044;3.746;2022-12-18T02:37:07;-1.20;99.90
13326;DHT22;6732;51.044;3.746;2022-12-18T02:39:36;-1.20;99.90
13326;DHT22;6732;51.044;3.746;2022-12-18T02:42:02;-1.20;99.90
13326;DHT22;6732;51.044;3.746;2022-12-18T02:44:50;-1.20;99.90
13326;DHT22;6732;51.044;3.746;2022-12-18T02:47:20;-1.20;99.90
13326;DHT22;6732;51.044;3.746;2022-12-18T02:58:01;-1.20;99.90
13326;DHT22;6732;51.044;3.746;2022-12-18T03:00:56;-1.20;99.90
13326;DHT22;6732;51.044;3.746;2022-12-18T03:03:29;-1.30;99.90
13326;DHT22;6732;51.044;3.746;2022-12-18T03:06:01;-1.30;99.90
13326;DHT22;6732;51.044;3.746;2022-12-18T03:08:32;-1.30;99.90
13326;DHT22;6732;51.044;3.746;2022-12-18T03:11:03;-1.30;99.90
13326;DHT22;6732;51.044;3.746;2022-12-18T03:13:42;-1.30;99.90
13326;DHT22;6732;51.044;3.746;2022-12-18T03:16:11;-1.30;99.90
13326;DHT22;6732;51.044;3.746;2022-12-18T03:19:01;-1.30;99.90
13326;DHT22;6732;51.044;3.746;2022-12-18T03:21:45;-1.30;99.90
13326;DHT22;6732;51.044;3.746;2022-12-18T03:24:11;-1.40;99.90
13326;DHT22;6732;51.044;3.746;2022-12-18T03:26:40;-1.40;99.90
13326;DHT22;6732;51.044;3.746;2022-12-18T03:29:12;-1.40;99.90
13326;DHT22;6732;51.044;3.746;2022-12-18T03:31:41;-1.40;99.90
13326;DHT22;6732;51.044;3.746;2022-12-18T03:34:20;-1.40;99.90
13326;DHT22;6732;51.044;3.746;2022-12-18T03:36:47;-1.40;99.90
13326;DHT22;6732;51.044;3.746;2022-12-18T03:39:13;-1.40;99.90
13326;DHT22;6732;51.044;3.746;2022-12-18T03:44:31;-1.50;99.90
13326;DHT22;6732;51.044;3.746;2022-12-18T03:47:13;-1.40;99.90
13326;DHT22;6732;51.044;3.746;2022-12-18T03:49:47;-1.50;99.90
13326;DHT22;6732;51.044;3.746;2022-12-18T03:52:28;-1.40;99.90
13326;DHT22;6732;51.044;3.746;2022-12-18T03:54:56;-1.50;99.90
13326;DHT22;6732;51.044;3.746;2022-12-18T03:57:26;-1.50;99.90
13326;DHT22;6732;51.044;3.746;2022-12-18T04:00:00;-1.50;99.90
13326;DHT22;6732;51.044;3.746;2022-12-18T04:02:27;-1.50;99.90
13326;DHT22;6732;51.044;3.746;2022-12-18T04:04:58;-1.50;99.90
13326;DHT22;6732;51.044;3.746;2022-12-18T04:07:25;-1.50;99.90
13326;DHT22;6732;51.044;3.746;2022-12-18T04:09:53;-1.50;99.90
13326;DHT22;6732;51.044;3.746;2022-12-18T04:12:25;-1.50;99.90
13326;DHT22;6732;51.044;3.746;2022-12-18T04:14:52;-1.50;99.90
13326;DHT22;6732;51.044;3.746;2022-12-18T04:17:18;-1.50;99.90
13326;DHT22;6732;51.044;3.746;2022-12-18T04:19:44;-1.50;99.90
13326;DHT22;6732;51.044;3.746;2022-12-18T04:22:10;-1.60;99.90
13326;DHT22;6732;51.044;3.746;2022-12-18T04:24:37;-1.60;99.90
13326;DHT22;6732;51.044;3.746;2022-12-18T04:27:03;-1.60;99.90
13326;DHT22;6732;51.044;3.746;2022-12-18T04:29:29;-1.60;99.90
13326;DHT22;6732;51.044;3.746;2022-12-18T04:31:55;-1.60;99.90
13326;DHT22;6732;51.044;3.746;2022-12-18T04:34:21;-1.60;99.90
13326;DHT22;6732;51.044;3.746;2022-12-18T04:36:47;-1.60;99.90
13326;DHT22;6732;51.044;3.746;2022-12-18T04:39:14;-1.60;99.90
13326;DHT22;6732;51.044;3.746;2022-12-18T04:41:40;-1.60;99.90
13326;DHT22;6732;51.044;3.746;2022-12-18T04:44:06;-1.60;99.90
13326;DHT22;6732;51.044;3.746;2022-12-18T04:46:32;-1.60;99.90
13326;DHT22;6732;51.044;3.746;2022-12-18T04:48:58;-1.60;99.90
13326;DHT22;6732;51.044;3.746;2022-12-18T04:51:24;-1.60;99.90
13326;DHT22;6732;51.044;3.746;2022-12-18T04:53:50;-1.60;99.90
13326;DHT22;6732;51.044;3.746;2022-12-18T04:56:16;-1.60;99.90
13326;DHT22;6732;51.044;3.746;2022-12-18T04:58:43;-1.60;99.90
13326;DHT22;6732;51.044;3.746;2022-12-18T05:01:11;-1.60;99.90
13326;DHT22;6732;51.044;3.746;2022-12-18T05:03:38;-1.60;99.90
13326;DHT22;6732;51.044;3.746;2022-12-18T05:06:05;-1.60;99.90
13326;DHT22;6732;51.044;3.746;2022-12-18T05:08:31;-1.60;99.90
13326;DHT22;6732;51.044;3.746;2022-12-18T05:13:30;-1.60;99.90
13326;DHT22;6732;51.044;3.746;2022-12-18T05:15:56;-1.60;99.90
13326;DHT22;6732;51.044;3.746;2022-12-18T05:18:25;-1.60;99.90
13326;DHT22;6732;51.044;3.746;2022-12-18T05:20:52;-1.70;99.90
13326;DHT22;6732;51.044;3.746;2022-12-18T05:23:19;-1.70;99.90
13326;DHT22;6732;51.044;3.746;2022-12-18T05:26:05;-1.70;99.90
13326;DHT22;6732;51.044;3.746;2022-12-18T05:28:32;-1.70;99.90
13326;DHT22;6732;51.044;3.746;2022-12-18T05:31:00;-1.70;99.90
13326;DHT22;6732;51.044;3.746;2022-12-18T05:33:30;-1.70;99.90
13326;DHT22;6732;51.044;3.746;2022-12-18T05:35:58;-1.70;99.90
13326;DHT22;6732;51.044;3.746;2022-12-18T05:38:25;-1.70;99.90
13326;DHT22;6732;51.044;3.746;2022-12-18T05:40:52;-1.70;99.90
13326;DHT22;6732;51.044;3.746;2022-12-18T05:43:19;-1.70;99.90
13326;DHT22;6732;51.044;3.746;2022-12-18T05:45:47;-1.70;99.90
13326;DHT22;6732;51.044;3.746;2022-12-18T05:48:13;-1.70;99.90
13326;DHT22;6732;51.044;3.746;2022-12-18T05:50:42;-1.70;99.90
13326;DHT22;6732;51.044;3.746;2022-12-18T05:53:08;-1.70;99.90
13326;DHT22;6732;51.044;3.746;2022-12-18T05:55:38;-1.70;99.90
13326;DHT22;6732;51.044;3.746;2022-12-18T05:58:06;-1.80;99.90
13326;DHT22;6732;51.044;3.746;2022-12-18T06:00:35;-1.80;99.90
13326;DHT22;6732;51.044;3.746;2022-12-18T06:03:01;-1.70;99.90
13326;DHT22;6732;51.044;3.746;2022-12-18T06:05:27;-1.70;99.90
13326;DHT22;6732;51.044;3.746;2022-12-18T06:07:53;-1.70;99.90
13326;DHT22;6732;51.044;3.746;2022-12-18T06:10:19;-1.80;99.90
13326;DHT22;6732;51.044;3.746;2022-12-18T06:12:45;-1.80;99.90
13326;DHT22;6732;51.044;3.746;2022-12-18T06:15:11;-1.80;99.90
13326;DHT22;6732;51.044;3.746;2022-12-18T06:17:37;-1.80;99.90
13326;DHT22;6732;51.044;3.746;2022-12-18T06:20:04;-1.80;99.90
13326;DHT22;6732;51.044;3.746;2022-12-18T06:22:33;-1.80;99.90
13326;DHT22;6732;51.044;3.746;2022-12-18T06:24:59;-1.80;99.90
13326;DHT22;6732;51.044;3.746;2022-12-18T06:27:25;-1.80;99.90
13326;DHT22;6732;51.044;3.746;2022-12-18T06:29:51;-1.80;99.90
13326;DHT22;6732;51.044;3.746;2022-12-18T06:32:16;-1.80;99.90
13326;DHT22;6732;51.044;3.746;2022-12-18T06:34:42;-1.80;99.90
13326;DHT22;6732;51.044;3.746;2022-12-18T06:37:08;-1.80;99.90
13326;DHT22;6732;51.044;3.746;2022-12-18T06:39:34;-1.80;99.90
13326;DHT22;6732;51.044;3.746;2022-12-18T06:42:00;-1.80;99.90
13326;DHT22;6732;51.044;3.746;2022-12-18T06:44:26;-1.80;99.90
13326;DHT22;6732;51.044;3.746;2022-12-18T06:46:52;-1.80;99.90
13326;DHT22;6732;51.044;3.746;2022-12-18T06:49:18;-1.80;99.90
13326;DHT22;6732;51.044;3.746;2022-12-18T06:51:45;-1.80;99.90
13326;DHT22;6732;51.044;3.746;2022-12-18T06:54:11;-1.80;99.90
13326;DHT22;6732;51.044;3.746;2022-12-18T06:56:37;-1.80;99.90
13326;DHT22;6732;51.044;3.746;2022-12-18T06:59:03;-1.80;99.90
13326;DHT22;6732;51.044;3.746;2022-12-18T07:01:29;-1.80;99.90
13326;DHT22;6732;51.044;3.746;2022-12-18T07:03:56;-1.80;99.90
13326;DHT22;6732;51.044;3.746;2022-12-18T07:06:24;-1.80;99.90
13326;DHT22;6732;51.044;3.746;2022-12-18T07:08:51;-1.80;99.90
13326;DHT22;6732;51.044;3.746;2022-12-18T07:11:18;-1.80;99.90
13326;DHT22;6732;51.044;3.746;2022-12-18T07:13:45;-1.80;99.90
13326;DHT22;6732;51.044;3.746;2022-12-18T07:16:15;-1.80;99.90
13326;DHT22;6732;51.044;3.746;2022-12-18T07:18:42;-1.80;99.90
13326;DHT22;6732;51.044;3.746;2022-12-18T07:21:10;-1.80;99.90
13326;DHT22;6732;51.044;3.746;2022-12-18T07:23:35;-1.80;99.90
13326;DHT22;6732;51.044;3.746;2022-12-18T07:26:03;-1.80;99.90
13326;DHT22;6732;51.044;3.746;2022-12-18T07:28:29;-1.80;99.90
13326;DHT22;6732;51.044;3.746;2022-12-18T07:30:55;-1.80;99.90
13326;DHT22;6732;51.044;3.746;2022-12-18T07:33:21;-1.80;99.90
13326;DHT22;6732;51.044;3.746;2022-12-18T07:35:47;-1.80;99.90
13326;DHT22;6732;51.044;3.746;2022-12-18T07:38:13;-1.80;99.90
13326;DHT22;6732;51.044;3.746;2022-12-18T07:40:39;-1.80;99.90
13326;DHT22;6732;51.044;3.746;2022-12-18T07:43:04;-1.80;99.90
13326;DHT22;6732;51.044;3.746;2022-12-18T07:45:31;-1.80;99.90
13326;DHT22;6732;51.044;3.746;2022-12-18T07:47:57;-1.80;99.90
13326;DHT22;6732;51.044;3.746;2022-12-18T07:50:23;-1.80;99.90
13326;DHT22;6732;51.044;3.746;2022-12-18T07:52:49;-1.80;99.90
13326;DHT22;6732;51.044;3.746;2022-12-18T07:55:15;-1.80;99.90
13326;DHT22;6732;51.044;3.746;2022-12-18T07:57:41;-1.80;99.90
13326;DHT22;6732;51.044;3.746;2022-12-18T08:00:08;-1.80;99.90
13326;DHT22;6732;51.044;3.746;2022-12-18T08:02:34;-1.80;99.90
13326;DHT22;6732;51.044;3.746;2022-12-18T08:05:00;-1.80;99.90
13326;DHT22;6732;51.044;3.746;2022-12-18T08:07:26;-1.90;99.90
13326;DHT22;6732;51.044;3.746;2022-12-18T08:09:51;-1.90;99.90
13326;DHT22;6732;51.044;3.746;2022-12-18T08:12:17;-1.90;99.90
13326;DHT22;6732;51.044;3.746;2022-12-18T08:14:43;-1.90;99.90
13326;DHT22;6732;51.044;3.746;2022-12-18T08:17:09;-1.90;99.90
13326;DHT22;6732;51.044;3.746;2022-12-18T08:19:35;-1.90;99.90
13326;DHT22;6732;51.044;3.746;2022-12-18T08:22:01;-1.90;99.90
13326;DHT22;6732;51.044;3.746;2022-12-18T08:24:27;-1.90;99.90
13326;DHT22;6732;51.044;3.746;2022-12-18T08:26:53;-1.80;99.90
13326;DHT22;6732;51.044;3.746;2022-12-18T08:29:19;-1.90;99.90
13326;DHT22;6732;51.044;3.746;2022-12-18T08:31:45;-1.90;99.90
13326;DHT22;6732;51.044;3.746;2022-12-18T08:34:11;-1.90;99.90
13326;DHT22;6732;51.044;3.746;2022-12-18T08:36:37;-1.90;99.90
13326;DHT22;6732;51.044;3.746;2022-12-18T08:39:02;-1.90;99.90
13326;DHT22;6732;51.044;3.746;2022-12-18T08:41:28;-1.80;99.90
13326;DHT22;6732;51.044;3.746;2022-12-18T08:43:54;-1.80;99.90
13326;DHT22;6732;51.044;3.746;2022-12-18T08:46:41;-1.80;99.90
13326;DHT22;6732;51.044;3.746;2022-12-18T08:49:08;-1.80;99.90
13326;DHT22;6732;51.044;3.746;2022-12-18T08:51:35;-1.80;99.90
13326;DHT22;6732;51.044;3.746;2022-12-18T08:54:01;-1.80;99.90
13326;DHT22;6732;51.044;3.746;2022-12-18T08:56:28;-1.80;99.90
13326;DHT22;6732;51.044;3.746;2022-12-18T08:58:55;-1.70;99.90
13326;DHT22;6732;51.044;3.746;2022-12-18T09:01:22;-1.70;99.90
13326;DHT22;6732;51.044;3.746;2022-12-18T09:03:49;-1.70;99.90
13326;DHT22;6732;51.044;3.746;2022-12-18T09:06:17;-1.60;99.90
13326;DHT22;6732;51.044;3.746;2022-12-18T09:08:44;-1.60;99.90
13326;DHT22;6732;51.044;3.746;2022-12-18T09:11:21;-1.60;99.90
13326;DHT22;6732;51.044;3.746;2022-12-18T09:13:47;-1.60;99.90
13326;DHT22;6732;51.044;3.746;2022-12-18T09:16:13;-1.60;99.90
13326;DHT22;6732;51.044;3.746;2022-12-18T09:18:39;-1.60;99.90
13326;DHT22;6732;51.044;3.746;2022-12-18T09:21:17;-1.60;99.90
13326;DHT22;6732;51.044;3.746;2022-12-18T09:23:44;-1.60;99.90
13326;DHT22;6732;51.044;3.746;2022-12-18T09:26:10;-1.60;99.90
13326;DHT22;6732;51.044;3.746;2022-12-18T09:28:36;-1.60;99.90
13326;DHT22;6732;51.044;3.746;2022-12-18T09:31:07;-1.50;99.90
13326;DHT22;6732;51.044;3.746;2022-12-18T09:33:37;-1.50;99.90
13326;DHT22;6732;51.044;3.746;2022-12-18T09:36:04;-1.50;99.90
13326;DHT22;6732;51.044;3.746;2022-12-18T09:38:30;-1.50;99.90
13326;DHT22;6732;51.044;3.746;2022-12-18T09:41:23;-1.50;99.90
13326;DHT22;6732;51.044;3.746;2022-12-18T09:43:54;-1.50;99.90
13326;DHT22;6732;51.044;3.746;2022-12-18T09:46:38;-1.50;99.90
13326;DHT22;6732;51.044;3.746;2022-12-18T09:49:12;-1.40;99.90
13326;DHT22;6732;51.044;3.746;2022-12-18T09:51:48;-1.40;99.90
13326;DHT22;6732;51.044;3.746;2022-12-18T09:54:40;-1.40;99.90
13326;DHT22;6732;51.044;3.746;2022-12-18T09:57:18;-1.40;99.90
13326;DHT22;6732;51.044;3.746;2022-12-18T09:59:49;-1.30;99.90
13326;DHT22;6732;51.044;3.746;2022-12-18T10:02:30;-1.30;99.90
13326;DHT22;6732;51.044;3.746;2022-12-18T10:05:07;-1.30;99.90
13326;DHT22;6732;51.044;3.746;2022-12-18T10:13:11;-1.30;99.90
13326;DHT22;6732;51.044;3.746;2022-12-18T10:15:51;-1.20;99.90
13326;DHT22;6732;51.044;3.746;2022-12-18T10:18:23;-1.20;99.90
13326;DHT22;6732;51.044;3.746;2022-12-18T10:21:05;-1.20;99.90
13326;DHT22;6732;51.044;3.746;2022-12-18T10:24:00;-1.20;99.90
13326;DHT22;6732;51.044;3.746;2022-12-18T10:26:27;-1.20;99.90
13326;DHT22;6732;51.044;3.746;2022-12-18T10:28:54;-1.20;99.90
13326;DHT22;6732;51.044;3.746;2022-12-18T10:31:22;-1.20;99.90
13326;DHT22;6732;51.044;3.746;2022-12-18T10:33:48;-1.10;99.90
13326;DHT22;6732;51.044;3.746;2022-12-18T10:36:14;-1.10;99.90
13326;DHT22;6732;51.044;3.746;2022-12-18T10:38:41;-1.10;99.90
13326;DHT22;6732;51.044;3.746;2022-12-18T10:41:25;-1.10;99.90
13326;DHT22;6732;51.044;3.746;2022-12-18T10:44:20;-1.00;99.90
13326;DHT22;6732;51.044;3.746;2022-12-18T10:46:53;-1.10;99.90
13326;DHT22;6732;51.044;3.746;2022-12-18T10:49:25;-1.00;99.90
13326;DHT22;6732;51.044;3.746;2022-12-18T10:52:07;-1.00;99.90
13326;DHT22;6732;51.044;3.746;2022-12-18T10:54:37;-1.00;99.90
13326;DHT22;6732;51.044;3.746;2022-12-18T10:59:56;-1.00;99.90
13326;DHT22;6732;51.044;3.746;2022-12-18T11:02:35;-1.00;99.90
13326;DHT22;6732;51.044;3.746;2022-12-18T11:05:01;-1.00;99.90
13326;DHT22;6732;51.044;3.746;2022-12-18T11:07:48;-0.90;99.90
13326;DHT22;6732;51.044;3.746;2022-12-18T11:10:19;-0.90;99.90
13326;DHT22;6732;51.044;3.746;2022-12-18T11:12:45;-0.90;99.90
13326;DHT22;6732;51.044;3.746;2022-12-18T11:15:30;-0.90;99.90
13326;DHT22;6732;51.044;3.746;2022-12-18T11:17:56;-0.90;99.90
13326;DHT22;6732;51.044;3.746;2022-12-18T11:20:34;-0.90;99.90
13326;DHT22;6732;51.044;3.746;2022-12-18T11:23:03;-0.80;99.90
13326;DHT22;6732;51.044;3.746;2022-12-18T11:25:31;-0.80;99.90
13326;DHT22;6732;51.044;3.746;2022-12-18T11:28:03;-0.80;99.90
13326;DHT22;6732;51.044;3.746;2022-12-18T11:30:37;-0.80;99.90
13326;DHT22;6732;51.044;3.746;2022-12-18T11:38:20;-0.80;99.90
13326;DHT22;6732;51.044;3.746;2022-12-18T11:41:05;-0.70;99.90
13326;DHT22;6732;51.044;3.746;2022-12-18T11:43:50;-0.70;99.90
13326;DHT22;6732;51.044;3.746;2022-12-18T11:46:23;-0.70;99.90
13326;DHT22;6732;51.044;3.746;2022-12-18T11:49:06;-0.70;99.90
13326;DHT22;6732;51.044;3.746;2022-12-18T11:51:51;-0.70;99.90
13326;DHT22;6732;51.044;3.746;2022-12-18T11:54:19;-0.60;99.90
13326;DHT22;6732;51.044;3.746;2022-12-18T11:56:51;-0.60;99.90
13326;DHT22;6732;51.044;3.746;2022-12-18T12:01:55;-0.50;99.90
13326;DHT22;6732;51.044;3.746;2022-12-18T12:15:13;-0.40;99.90
13326;DHT22;6732;51.044;3.746;2022-12-18T12:17:51;-0.30;99.90
13326;DHT22;6732;51.044;3.746;2022-12-18T12:20:25;-0.30;99.90
13326;DHT22;6732;51.044;3.746;2022-12-18T12:25:54;-0.30;99.90
13326;DHT22;6732;51.044;3.746;2022-12-18T12:39:28;-0.20;99.90
13326;DHT22;6732;51.044;3.746;2022-12-18T12:41:56;-0.20;99.90
13326;DHT22;6732;51.044;3.746;2022-12-18T12:44:56;-0.10;99.90
13326;DHT22;6732;51.044;3.746;2022-12-18T12:47:30;-0.10;99.90
13326;DHT22;6732;51.044;3.746;2022-12-18T12:49:58;-0.10;99.90
13326;DHT22;6732;51.044;3.746;2022-12-18T12:54:58;0.00;99.90
13326;DHT22;6732;51.044;3.746;2022-12-18T12:57:39;0.00;99.90
13326;DHT22;6732;51.044;3.746;2022-12-18T13:00:14;0.00;99.90
13326;DHT22;6732;51.044;3.746;2022-12-18T13:05:27;0.00;99.90
13326;DHT22;6732;51.044;3.746;2022-12-18T13:07:59;0.00;99.90
13326;DHT22;6732;51.044;3.746;2022-12-18T13:10:33;0.10;99.90
13326;DHT22;6732;51.044;3.746;2022-12-18T13:13:06;0.10;99.90
13326;DHT22;6732;51.044;3.746;2022-12-18T13:15:42;0.10;99.90
13326;DHT22;6732;51.044;3.746;2022-12-18T13:31:13;0.20;99.90
13326;DHT22;6732;51.044;3.746;2022-12-18T13:33:45;0.30;99.90
13326;DHT22;6732;51.044;3.746;2022-12-18T13:38:47;0.30;99.90
13326;DHT22;6732;51.044;3.746;2022-12-18T13:41:33;0.30;99.90
13326;DHT22;6732;51.044;3.746;2022-12-18T13:46:56;0.30;99.90
13326;DHT22;6732;51.044;3.746;2022-12-18T13:49:43;0.30;99.90
13326;DHT22;6732;51.044;3.746;2022-12-18T13:52:19;0.40;99.90
13326;DHT22;6732;51.044;3.746;2022-12-18T13:54:54;0.40;99.90
13326;DHT22;6732;51.044;3.746;2022-12-18T13:57:39;0.40;99.90
13326;DHT22;6732;51.044;3.746;2022-12-18T14:02:47;0.40;99.90
13326;DHT22;6732;51.044;3.746;2022-12-18T14:05:34;0.40;99.90
13326;DHT22;6732;51.044;3.746;2022-12-18T14:08:14;0.40;99.90
13326;DHT22;6732;51.044;3.746;2022-12-18T14:10:45;0.40;99.90
13326;DHT22;6732;51.044;3.746;2022-12-18T14:13:20;0.40;99.90
13326;DHT22;6732;51.044;3.746;2022-12-18T14:15:48;0.40;99.90
13326;DHT22;6732;51.044;3.746;2022-12-18T14:20:47;0.40;99.90
13326;DHT22;6732;51.044;3.746;2022-12-18T14:23:32;0.50;99.90
13326;DHT22;6732;51.044;3.746;2022-12-18T14:25:59;0.50;99.90
13326;DHT22;6732;51.044;3.746;2022-12-18T14:28:26;0.50;99.90
13326;DHT22;6732;51.044;3.746;2022-12-18T14:31:21;0.50;99.90
13326;DHT22;6732;51.044;3.746;2022-12-18T14:33:47;0.50;99.90
13326;DHT22;6732;51.044;3.746;2022-12-18T14:36:19;0.50;99.90
13326;DHT22;6732;51.044;3.746;2022-12-18T14:38:57;0.50;99.90
13326;DHT22;6732;51.044;3.746;2022-12-18T14:41:24;0.50;99.90
13326;DHT22;6732;51.044;3.746;2022-12-18T14:43:52;0.50;99.90
13326;DHT22;6732;51.044;3.746;2022-12-18T14:48:56;0.50;99.90
13326;DHT22;6732;51.044;3.746;2022-12-18T14:51:27;0.50;99.90
13326;DHT22;6732;51.044;3.746;2022-12-18T14:53:55;0.60;99.90
13326;DHT22;6732;51.044;3.746;2022-12-18T15:01:27;0.60;99.90
13326;DHT22;6732;51.044;3.746;2022-12-18T15:03:55;0.60;99.90
13326;DHT22;6732;51.044;3.746;2022-12-18T15:06:31;0.60;99.90
13326;DHT22;6732;51.044;3.746;2022-12-18T15:08:59;0.60;99.90
13326;DHT22;6732;51.044;3.746;2022-12-18T15:11:32;0.60;99.90
13326;DHT22;6732;51.044;3.746;2022-12-18T15:13:58;0.60;99.90
13326;DHT22;6732;51.044;3.746;2022-12-18T15:16:26;0.70;99.90
13326;DHT22;6732;51.044;3.746;2022-12-18T15:18:53;0.60;99.90
13326;DHT22;6732;51.044;3.746;2022-12-18T15:21:20;0.70;99.90
13326;DHT22;6732;51.044;3.746;2022-12-18T15:23:48;0.70;99.90
13326;DHT22;6732;51.044;3.746;2022-12-18T15:26:18;0.70;99.90
13326;DHT22;6732;51.044;3.746;2022-12-18T15:28:46;0.70;99.90
13326;DHT22;6732;51.044;3.746;2022-12-18T15:36:33;0.70;99.90
13326;DHT22;6732;51.044;3.746;2022-12-18T15:39:03;0.70;99.90
13326;DHT22;6732;51.044;3.746;2022-12-18T15:41:31;0.70;99.90
13326;DHT22;6732;51.044;3.746;2022-12-18T15:43:59;0.70;99.90
13326;DHT22;6732;51.044;3.746;2022-12-18T15:46:25;0.70;99.90
13326;DHT22;6732;51.044;3.746;2022-12-18T15:48:54;0.70;99.90
13326;DHT22;6732;51.044;3.746;2022-12-18T15:51:23;0.70;99.90
13326;DHT22;6732;51.044;3.746;2022-12-18T15:53:52;0.70;99.90
13326;DHT22;6732;51.044;3.746;2022-12-18T15:56:19;0.70;99.90
13326;DHT22;6732;51.044;3.746;2022-12-18T15:59:12;0.70;99.90
13326;DHT22;6732;51.044;3.746;2022-12-18T16:01:38;0.70;99.90
13326;DHT22;6732;51.044;3.746;2022-12-18T16:04:04;0.70;99.90
13326;DHT22;6732;51.044;3.746;2022-12-18T16:06:30;0.80;99.90
13326;DHT22;6732;51.044;3.746;2022-12-18T16:08:56;0.80;99.90
13326;DHT22;6732;51.044;3.746;2022-12-18T16:11:25;0.80;99.90
13326;DHT22;6732;51.044;3.746;2022-12-18T16:14:18;0.80;99.90
13326;DHT22;6732;51.044;3.746;2022-12-18T16:16:46;0.80;99.90
13326;DHT22;6732;51.044;3.746;2022-12-18T16:19:12;0.80;99.90
13326;DHT22;6732;51.044;3.746;2022-12-18T16:21:38;0.80;99.90
13326;DHT22;6732;51.044;3.746;2022-12-18T16:24:05;0.80;99.90
13326;DHT22;6732;51.044;3.746;2022-12-18T16:26:31;0.80;99.90
13326;DHT22;6732;51.044;3.746;2022-12-18T16:28:57;0.80;99.90
13326;DHT22;6732;51.044;3.746;2022-12-18T16:31:23;0.90;99.90
13326;DHT22;6732;51.044;3.746;2022-12-18T16:33:49;0.90;99.90
13326;DHT22;6732;51.044;3.746;2022-12-18T16:36:15;0.90;99.90
13326;DHT22;6732;51.044;3.746;2022-12-18T16:38:40;0.90;99.90
13326;DHT22;6732;51.044;3.746;2022-12-18T16:41:19;0.90;99.90
13326;DHT22;6732;51.044;3.746;2022-12-18T16:43:59;0.90;99.90
13326;DHT22;6732;51.044;3.746;2022-12-18T16:46:25;0.90;99.90
13326;DHT22;6732;51.044;3.746;2022-12-18T16:48:51;0.90;99.90
13326;DHT22;6732;51.044;3.746;2022-12-18T16:51:17;0.90;99.90
13326;DHT22;6732;51.044;3.746;2022-12-18T16:53:42;0.90;99.90
13326;DHT22;6732;51.044;3.746;2022-12-18T16:56:08;0.90;99.90
13326;DHT22;6732;51.044;3.746;2022-12-18T16:58:34;0.90;99.90
13326;DHT22;6732;51.044;3.746;2022-12-18T17:01:00;0.90;99.90
13326;DHT22;6732;51.044;3.746;2022-12-18T17:03:26;0.90;99.90
13326;DHT22;6732;51.044;3.746;2022-12-18T17:05:52;1.00;99.90
13326;DHT22;6732;51.044;3.746;2022-12-18T17:08:18;1.00;99.90
13326;DHT22;6732;51.044;3.746;2022-12-18T17:10:44;1.00;99.90
13326;DHT22;6732;51.044;3.746;2022-12-18T17:13:10;1.00;99.90
13326;DHT22;6732;51.044;3.746;2022-12-18T17:15:36;1.00;99.90
13326;DHT22;6732;51.044;3.746;2022-12-18T17:18:02;1.00;99.90
13326;DHT22;6732;51.044;3.746;2022-12-18T17:20:29;1.00;99.90
13326;DHT22;6732;51.044;3.746;2022-12-18T17:22:55;1.00;99.90
13326;DHT22;6732;51.044;3.746;2022-12-18T17:25:21;1.00;99.90
13326;DHT22;6732;51.044;3.746;2022-12-18T17:27:47;1.00;99.90
13326;DHT22;6732;51.044;3.746;2022-12-18T17:30:15;1.00;99.90
13326;DHT22;6732;51.044;3.746;2022-12-18T17:32:41;1.00;99.90
13326;DHT22;6732;51.044;3.746;2022-12-18T17:35:07;1.10;99.90
13326;DHT22;6732;51.044;3.746;2022-12-18T17:37:33;1.10;99.90
13326;DHT22;6732;51.044;3.746;2022-12-18T17:39:58;1.10;99.90
13326;DHT22;6732;51.044;3.746;2022-12-18T17:42:24;1.10;99.90
13326;DHT22;6732;51.044;3.746;2022-12-18T17:44:51;1.10;99.90
13326;DHT22;6732;51.044;3.746;2022-12-18T17:47:17;1.10;99.90
13326;DHT22;6732;51.044;3.746;2022-12-18T17:49:43;1.10;99.90
13326;DHT22;6732;51.044;3.746;2022-12-18T17:52:09;1.10;99.90
13326;DHT22;6732;51.044;3.746;2022-12-18T17:54:36;1.10;99.90
13326;DHT22;6732;51.044;3.746;2022-12-18T17:57:04;1.10;99.90
13326;DHT22;6732;51.044;3.746;2022-12-18T18:03:11;1.10;99.90
13326;DHT22;6732;51.044;3.746;2022-12-18T18:05:37;1.10;99.90